Terminal Aerodrome Forecast
Issued by NWS

Home | Current Version | Previous Version | Text Only | Print | Product List | Glossary On
Versions: 1 2 3 4 5 6 7 8 9 10 11 12 13 14
000
FTUS41 KPBZ 261124
TAFMGW
TAF
KMGW 261124Z 2612/2712 VRB03KT P6SM SCT250
      TEMPO 2612/2613 5SM BR
     FM270900 00000KT 2SM BR SKC=

USA.gov is the U.S. government's official web portal to all federal, state and local government web resources and services.